createdAt,value
2017-08-29T00:00:57.887Z,59.28
2017-08-29T00:03:25.279Z,59.39
2017-08-29T00:05:52.678Z,59.40
2017-08-29T00:08:20.072Z,59.35
2017-08-29T00:10:47.451Z,59.74
2017-08-29T00:13:14.852Z,59.58
2017-08-29T00:15:42.236Z,59.43
2017-08-29T00:18:09.630Z,59.54
2017-08-29T00:20:37.026Z,59.31
2017-08-29T00:23:04.411Z,59.54
2017-08-29T00:25:31.807Z,59.63
2017-08-29T00:27:59.198Z,59.76
2017-08-29T00:30:26.591Z,59.75
2017-08-29T00:32:53.986Z,59.76
2017-08-29T00:35:21.379Z,59.67
2017-08-29T00:37:48.767Z,59.59
2017-08-29T00:40:16.163Z,59.83
2017-08-29T00:42:43.550Z,59.40
2017-08-29T00:45:11.171Z,59.70
2017-08-29T00:47:38.586Z,59.55
2017-08-29T00:50:06.290Z,59.50
2017-08-29T00:52:33.683Z,59.50
2017-08-29T00:55:01.083Z,59.84
2017-08-29T00:57:28.466Z,59.85
2017-08-29T00:59:55.864Z,59.67
2017-08-29T01:02:23.251Z,59.95
2017-08-29T01:04:50.648Z,59.88
2017-08-29T01:07:18.038Z,59.63
2017-08-29T01:09:45.438Z,59.74
2017-08-29T01:12:12.826Z,59.88
2017-08-29T01:14:40.222Z,59.66
2017-08-29T01:17:07.615Z,59.44
2017-08-29T01:19:35.006Z,59.65
2017-08-29T01:22:02.392Z,59.65
2017-08-29T01:24:30.067Z,59.73
2017-08-29T01:26:57.455Z,59.79
2017-08-29T01:29:24.856Z,60.17
2017-08-29T01:31:52.240Z,60.29
2017-08-29T01:34:19.626Z,60.38
2017-08-29T01:36:47.016Z,60.14
2017-08-29T01:39:14.410Z,60.43
2017-08-29T01:41:42.055Z,60.28
2017-08-29T01:44:09.715Z,59.98
2017-08-29T01:46:37.104Z,60.08
2017-08-29T01:49:04.486Z,60.16
2017-08-29T01:51:31.883Z,60.45
2017-08-29T01:53:59.268Z,60.13
2017-08-29T01:56:26.666Z,60.06
2017-08-29T01:58:54.054Z,60.49
2017-08-29T02:01:21.454Z,60.45
2017-08-29T02:03:48.843Z,60.52
2017-08-29T02:06:16.245Z,61.28
2017-08-29T02:08:43.635Z,61.44
2017-08-29T02:11:11.031Z,61.77
2017-08-29T02:13:38.427Z,61.79
2017-08-29T02:16:05.819Z,62.20
2017-08-29T02:18:33.206Z,62.67
2017-08-29T02:21:00.604Z,63.15
2017-08-29T02:23:27.991Z,62.99
2017-08-29T02:25:55.390Z,63.32
2017-08-29T02:28:22.778Z,63.86
2017-08-29T02:30:50.175Z,63.80
2017-08-29T02:33:17.572Z,63.58
2017-08-29T02:35:44.963Z,64.06
2017-08-29T02:38:12.360Z,64.18
2017-08-29T02:40:39.746Z,63.98
2017-08-29T02:43:07.150Z,63.85
2017-08-29T02:45:34.527Z,63.82
2017-08-29T02:48:01.927Z,64.43
2017-08-29T02:50:29.319Z,64.24
2017-08-29T02:52:56.719Z,64.11
2017-08-29T02:55:24.103Z,64.02
2017-08-29T02:57:51.774Z,63.88
2017-08-29T03:00:19.166Z,64.16
2017-08-29T03:02:46.550Z,63.88
2017-08-29T03:05:13.935Z,63.92
2017-08-29T03:07:41.334Z,63.70
2017-08-29T03:10:08.717Z,63.91
2017-08-29T03:12:36.411Z,63.78
2017-08-29T03:15:03.799Z,63.79
2017-08-29T03:17:31.204Z,63.76
2017-08-29T03:19:58.584Z,63.92
2017-08-29T03:22:25.974Z,63.84
2017-08-29T03:24:53.362Z,64.69
2017-08-29T03:27:20.766Z,64.47
2017-08-29T03:29:48.151Z,64.10
2017-08-29T03:32:15.547Z,64.47
2017-08-29T03:34:42.927Z,64.29
2017-08-29T03:37:10.874Z,64.03
2017-08-29T03:39:38.267Z,63.97
2017-08-29T03:42:05.889Z,63.93
2017-08-29T03:44:33.283Z,63.71
2017-08-29T03:47:00.671Z,63.67
2017-08-29T03:49:28.068Z,63.77
2017-08-29T03:51:55.447Z,64.20
2017-08-29T03:54:22.901Z,63.81
2017-08-29T03:56:50.275Z,63.59
2017-08-29T03:59:17.671Z,63.63
2017-08-29T04:01:45.063Z,63.52
2017-08-29T04:04:12.455Z,63.14
2017-08-29T04:06:39.843Z,63.29
2017-08-29T04:09:07.245Z,63.32
2017-08-29T04:11:34.634Z,63.35
2017-08-29T04:14:02.024Z,63.41
2017-08-29T04:16:29.428Z,63.49
2017-08-29T04:18:56.831Z,63.36
2017-08-29T04:21:24.234Z,63.31
2017-08-29T04:23:51.622Z,63.96
2017-08-29T04:26:19.014Z,64.23
2017-08-29T04:28:46.409Z,64.43
2017-08-29T04:31:13.807Z,64.56
2017-08-29T04:33:41.411Z,64.56
2017-08-29T04:36:08.910Z,64.97
2017-08-29T04:38:36.328Z,64.81
2017-08-29T04:41:03.730Z,65.16
2017-08-29T04:43:31.122Z,65.37
2017-08-29T04:45:58.531Z,65.38
2017-08-29T04:48:25.973Z,65.16
2017-08-29T04:50:53.358Z,65.55
2017-08-29T04:53:20.762Z,66.24
2017-08-29T04:55:48.155Z,66.70
2017-08-29T04:58:15.551Z,66.35
2017-08-29T05:00:42.941Z,66.54
2017-08-29T05:03:10.332Z,66.17
2017-08-29T05:05:37.727Z,66.06
2017-08-29T05:08:05.119Z,65.92
2017-08-29T05:10:32.506Z,66.02
2017-08-29T05:12:59.899Z,66.39
2017-08-29T05:15:27.290Z,66.60
2017-08-29T05:17:54.699Z,66.54
2017-08-29T05:20:22.107Z,66.47
2017-08-29T05:22:49.504Z,66.30
2017-08-29T05:25:16.896Z,66.30
2017-08-29T05:27:44.282Z,66.31
2017-08-29T05:30:11.674Z,65.97
2017-08-29T05:32:39.069Z,66.29
2017-08-29T05:35:06.451Z,66.62
2017-08-29T05:37:33.847Z,66.59
2017-08-29T05:40:01.239Z,66.37
2017-08-29T05:42:28.630Z,66.94
2017-08-29T05:44:56.011Z,67.85
2017-08-29T05:47:23.714Z,68.47
2017-08-29T05:49:51.101Z,68.38
2017-08-29T05:52:18.727Z,68.08
2017-08-29T05:54:46.391Z,68.70
2017-08-29T05:57:14.051Z,68.24
2017-08-29T05:59:41.457Z,68.56
2017-08-29T06:02:08.841Z,68.01
2017-08-29T06:04:36.251Z,68.02
2017-08-29T06:07:03.650Z,67.65
2017-08-29T06:09:31.046Z,67.49
2017-08-29T06:11:58.426Z,67.61
2017-08-29T06:14:25.826Z,67.81
2017-08-29T06:16:53.215Z,68.07
2017-08-29T06:19:20.618Z,67.85
2017-08-29T06:21:47.999Z,68.14
2017-08-29T06:24:15.395Z,68.21
2017-08-29T06:26:42.780Z,68.16
2017-08-29T06:29:10.183Z,68.10
2017-08-29T06:31:37.576Z,67.92
2017-08-29T06:34:04.970Z,67.95
2017-08-29T06:36:32.365Z,68.01
2017-08-29T06:38:59.759Z,67.83
2017-08-29T06:41:27.138Z,67.49
2017-08-29T06:43:54.555Z,67.41
2017-08-29T06:46:21.938Z,67.48
2017-08-29T06:48:49.317Z,66.74
2017-08-29T06:51:16.972Z,66.75
2017-08-29T06:53:44.362Z,65.95
2017-08-29T06:56:11.754Z,65.91
2017-08-29T06:58:39.138Z,65.70
2017-08-29T07:01:06.799Z,65.49
2017-08-29T07:03:34.187Z,65.51
2017-08-29T07:06:01.587Z,65.26
2017-08-29T07:08:28.979Z,64.76
2017-08-29T07:10:56.380Z,64.81
2017-08-29T07:13:23.767Z,64.96
2017-08-29T07:15:51.172Z,64.58
2017-08-29T07:18:18.567Z,64.10
2017-08-29T07:20:45.954Z,63.77
2017-08-29T07:23:13.346Z,63.72
2017-08-29T07:25:40.744Z,63.83
2017-08-29T07:28:08.275Z,63.07
2017-08-29T07:30:35.671Z,62.95
2017-08-29T07:33:03.054Z,62.66
2017-08-29T07:35:30.447Z,62.36
2017-08-29T07:37:57.843Z,62.28
2017-08-29T07:40:25.228Z,62.02
2017-08-29T07:42:52.622Z,61.39
2017-08-29T07:45:20.234Z,61.09
2017-08-29T07:47:47.629Z,61.43
2017-08-29T07:50:15.019Z,61.34
2017-08-29T07:52:42.417Z,61.33
2017-08-29T07:55:09.806Z,60.29
2017-08-29T07:57:37.200Z,60.49
2017-08-29T08:00:04.595Z,60.51
2017-08-29T08:02:31.991Z,60.12
2017-08-29T08:04:59.375Z,59.76
2017-08-29T08:07:26.767Z,59.84
2017-08-29T08:09:54.165Z,59.94
2017-08-29T08:12:21.559Z,59.86
2017-08-29T08:14:49.162Z,59.34
2017-08-29T08:17:16.552Z,59.14
2017-08-29T08:19:43.952Z,59.28
2017-08-29T08:22:11.335Z,58.98
2017-08-29T08:24:38.726Z,59.00
2017-08-29T08:27:06.114Z,59.08
2017-08-29T08:29:33.518Z,57.92
2017-08-29T08:32:00.910Z,58.73
2017-08-29T08:34:28.307Z,58.32
2017-08-29T08:36:55.686Z,58.67
2017-08-29T08:39:23.083Z,58.99
2017-08-29T08:41:50.479Z,58.24
2017-08-29T08:44:17.890Z,57.99
2017-08-29T08:46:45.291Z,57.54
2017-08-29T08:49:12.691Z,57.79
2017-08-29T08:51:40.083Z,57.00
2017-08-29T08:54:07.489Z,57.78
2017-08-29T08:56:35.083Z,57.56
2017-08-29T08:59:02.479Z,58.05
2017-08-29T09:01:29.871Z,57.52
2017-08-29T09:03:57.281Z,57.59
2017-08-29T09:06:24.659Z,57.57
2017-08-29T09:08:52.072Z,57.78
2017-08-29T09:11:19.452Z,56.28
2017-08-29T09:13:47.063Z,56.06
2017-08-29T09:16:14.454Z,57.27
2017-08-29T09:18:41.848Z,57.00
2017-08-29T09:21:09.238Z,57.24
2017-08-29T09:23:36.639Z,56.79
2017-08-29T09:26:04.032Z,55.99
2017-08-29T09:28:31.431Z,56.05
2017-08-29T09:30:58.823Z,55.49
2017-08-29T09:33:26.218Z,55.75
2017-08-29T09:35:53.619Z,56.16
2017-08-29T09:38:21.012Z,54.52
2017-08-29T09:40:48.415Z,54.71
2017-08-29T09:43:15.823Z,55.83
2017-08-29T09:45:43.211Z,56.40
2017-08-29T09:48:10.608Z,55.54
2017-08-29T09:50:38.009Z,54.83
2017-08-29T09:53:05.411Z,55.56
2017-08-29T09:55:32.807Z,54.99
2017-08-29T09:58:00.202Z,54.98
2017-08-29T10:00:27.611Z,54.53
2017-08-29T10:02:55.011Z,54.41
2017-08-29T10:05:22.419Z,53.28
2017-08-29T10:07:49.818Z,53.71
2017-08-29T10:10:17.220Z,53.50
2017-08-29T10:12:44.644Z,54.92
2017-08-29T10:15:12.062Z,53.78
2017-08-29T10:17:39.459Z,53.75
2017-08-29T10:20:06.879Z,52.98
2017-08-29T10:22:34.284Z,52.41
2017-08-29T10:25:01.690Z,52.70
2017-08-29T10:27:29.095Z,53.24
2017-08-29T10:29:56.503Z,52.32
2017-08-29T10:32:23.895Z,52.60
2017-08-29T10:34:51.310Z,52.81
2017-08-29T10:37:18.712Z,51.93
2017-08-29T10:39:46.120Z,52.75
2017-08-29T10:42:13.731Z,51.08
2017-08-29T10:44:41.131Z,54.11
2017-08-29T10:47:08.532Z,51.65
2017-08-29T10:49:35.954Z,50.27
2017-08-29T10:52:03.360Z,51.10
2017-08-29T10:54:30.771Z,50.85
2017-08-29T10:56:58.168Z,51.26
2017-08-29T10:59:25.584Z,50.00
2017-08-29T11:01:52.987Z,49.93
2017-08-29T11:04:20.387Z,49.29
2017-08-29T11:06:47.799Z,48.52
2017-08-29T11:09:15.195Z,49.60
2017-08-29T11:11:42.587Z,49.87
2017-08-29T11:14:09.979Z,51.08
2017-08-29T11:16:37.398Z,50.39
2017-08-29T11:19:04.791Z,49.35
2017-08-29T11:21:32.199Z,49.35
2017-08-29T11:23:59.611Z,47.79
2017-08-29T11:26:27.023Z,47.29
2017-08-29T11:28:54.437Z,47.98
2017-08-29T11:31:21.840Z,49.28
2017-08-29T11:33:49.461Z,48.60
2017-08-29T11:36:16.883Z,48.25
2017-08-29T11:38:44.294Z,50.15
2017-08-29T11:41:11.682Z,48.22
2017-08-29T11:43:39.199Z,47.01
2017-08-29T11:46:06.764Z,47.62
2017-08-29T11:48:34.162Z,49.87
2017-08-29T11:51:01.567Z,47.83
2017-08-29T11:53:28.974Z,48.05
2017-08-29T11:55:56.375Z,46.84
2017-08-29T11:58:23.774Z,47.18
2017-08-29T12:00:53.724Z,48.76
2017-08-29T12:03:21.172Z,48.61
2017-08-29T12:05:48.576Z,47.54
2017-08-29T12:08:15.994Z,47.00
2017-08-29T12:10:43.603Z,47.24
2017-08-29T12:13:11.003Z,48.77
2017-08-29T12:15:38.386Z,47.88
2017-08-29T12:18:05.791Z,48.35
2017-08-29T12:20:33.195Z,46.80
2017-08-29T12:23:00.587Z,47.31
2017-08-29T12:25:27.979Z,47.02
2017-08-29T12:27:55.381Z,46.06
2017-08-29T12:30:22.767Z,47.49
2017-08-29T12:32:50.168Z,45.81
2017-08-29T12:35:17.568Z,47.12
2017-08-29T12:37:44.977Z,44.21
2017-08-29T12:40:12.365Z,45.76
2017-08-29T12:42:39.768Z,45.52
2017-08-29T12:45:07.178Z,44.68
2017-08-29T12:47:34.567Z,46.77
2017-08-29T12:50:01.988Z,44.58
2017-08-29T12:52:29.379Z,44.50
2017-08-29T12:54:56.783Z,44.63
2017-08-29T12:57:24.182Z,44.30
2017-08-29T12:59:51.575Z,42.56
2017-08-29T13:02:18.977Z,43.34
2017-08-29T13:04:46.376Z,43.81
2017-08-29T13:07:13.792Z,43.75
2017-08-29T13:09:41.411Z,43.25
2017-08-29T13:12:08.817Z,42.14
2017-08-29T13:14:36.790Z,43.08
2017-08-29T13:17:04.187Z,42.96
2017-08-29T13:19:31.595Z,42.11
2017-08-29T13:21:58.984Z,42.17
2017-08-29T13:24:26.377Z,42.68
2017-08-29T13:26:53.783Z,42.60
2017-08-29T13:29:21.200Z,41.82
2017-08-29T13:31:48.617Z,42.47
2017-08-29T13:34:16.016Z,43.19
2017-08-29T13:36:43.615Z,42.99
2017-08-29T13:39:11.024Z,43.11
2017-08-29T13:41:38.416Z,44.00
2017-08-29T13:44:05.810Z,43.13
2017-08-29T13:46:33.743Z,44.04
2017-08-29T13:49:01.139Z,43.84
2017-08-29T13:51:28.543Z,44.16
2017-08-29T13:53:55.935Z,42.85
2017-08-29T13:56:23.340Z,42.73
2017-08-29T13:58:50.732Z,43.58
2017-08-29T14:01:18.132Z,44.53
2017-08-29T14:03:45.732Z,44.80
2017-08-29T14:06:13.149Z,44.55
2017-08-29T14:08:40.759Z,43.71
2017-08-29T14:11:08.147Z,43.67
2017-08-29T14:13:35.531Z,43.55
2017-08-29T14:16:02.931Z,42.44
2017-08-29T14:18:30.334Z,43.17
2017-08-29T14:20:57.722Z,43.39
2017-08-29T14:23:25.124Z,43.12
2017-08-29T14:25:52.523Z,43.99
2017-08-29T14:28:19.911Z,43.75
2017-08-29T14:30:47.368Z,43.09
2017-08-29T14:33:14.788Z,41.73
2017-08-29T14:35:42.163Z,42.70
2017-08-29T14:38:09.560Z,43.26
2017-08-29T14:40:36.962Z,42.42
2017-08-29T14:43:04.351Z,43.01
2017-08-29T14:45:31.757Z,43.39
2017-08-29T14:48:11.689Z,43.08
2017-08-29T14:50:39.079Z,40.63
2017-08-29T14:53:06.491Z,40.02
2017-08-29T14:55:33.882Z,39.92
2017-08-29T14:58:01.271Z,39.50
2017-08-29T15:00:28.677Z,40.70
2017-08-29T15:02:56.055Z,40.65
2017-08-29T15:05:23.459Z,40.53
2017-08-29T15:07:50.848Z,40.89
2017-08-29T15:10:18.247Z,41.33
2017-08-29T15:12:45.847Z,41.53
2017-08-29T15:15:13.294Z,41.35
2017-08-29T15:17:40.667Z,41.58
2017-08-29T15:20:08.068Z,42.60
2017-08-29T15:22:35.457Z,41.96
2017-08-29T15:25:03.068Z,42.29
2017-08-29T15:27:30.459Z,41.79
2017-08-29T15:29:57.849Z,42.19
2017-08-29T15:32:25.239Z,42.50
2017-08-29T15:34:52.649Z,42.58
2017-08-29T15:37:20.033Z,42.82
2017-08-29T15:39:47.419Z,43.51
2017-08-29T15:42:14.833Z,43.02
2017-08-29T15:44:42.210Z,42.56
2017-08-29T15:47:09.891Z,42.66
2017-08-29T15:49:37.290Z,42.22
2017-08-29T15:52:04.688Z,42.49
2017-08-29T15:54:32.076Z,42.37
2017-08-29T15:56:59.540Z,41.89
2017-08-29T15:59:26.950Z,42.46
2017-08-29T16:01:54.379Z,42.08
2017-08-29T16:04:21.775Z,42.11
2017-08-29T16:06:49.175Z,42.62
2017-08-29T16:09:16.562Z,42.47
2017-08-29T16:11:43.971Z,42.07
2017-08-29T16:14:11.363Z,42.04
2017-08-29T16:16:38.746Z,42.51
2017-08-29T16:19:06.164Z,42.70
2017-08-29T16:21:33.538Z,41.93
2017-08-29T16:24:00.939Z,41.87
2017-08-29T16:26:28.319Z,42.46
2017-08-29T16:28:55.716Z,42.59
2017-08-29T16:31:23.111Z,42.47
2017-08-29T16:33:50.511Z,42.22
2017-08-29T16:36:17.914Z,42.83
2017-08-29T16:38:45.287Z,42.87
2017-08-29T16:41:12.671Z,43.18
2017-08-29T16:43:40.071Z,42.86
2017-08-29T16:46:07.454Z,42.88
2017-08-29T16:48:34.871Z,42.68
2017-08-29T16:51:02.260Z,43.25
2017-08-29T16:53:29.646Z,42.85
2017-08-29T16:55:57.069Z,42.93
2017-08-29T16:58:24.462Z,43.57
2017-08-29T17:00:51.850Z,44.01
2017-08-29T17:03:19.243Z,44.09
2017-08-29T17:05:46.639Z,44.18
2017-08-29T17:08:14.031Z,44.09
2017-08-29T17:10:41.418Z,44.06
2017-08-29T17:15:48.891Z,44.07
2017-08-29T17:18:16.294Z,44.37
2017-08-29T17:20:43.684Z,44.38
2017-08-29T17:23:11.313Z,44.56
2017-08-29T17:25:39.595Z,44.41
2017-08-29T17:28:06.997Z,44.32
2017-08-29T17:30:34.386Z,44.46
2017-08-29T17:33:01.788Z,44.45
2017-08-29T17:35:29.187Z,44.71
2017-08-29T17:37:56.566Z,44.91
2017-08-29T17:40:24.023Z,44.58
2017-08-29T17:42:51.411Z,44.84
2017-08-29T17:45:18.811Z,45.20
2017-08-29T17:47:46.203Z,45.65
2017-08-29T17:50:13.594Z,47.03
2017-08-29T17:52:43.331Z,47.93
2017-08-29T17:55:10.838Z,48.48
2017-08-29T17:57:38.229Z,48.47
2017-08-29T18:00:05.628Z,48.47
2017-08-29T18:02:33.027Z,48.60
2017-08-29T18:05:00.411Z,49.08
2017-08-29T18:07:27.819Z,49.06
2017-08-29T18:09:55.219Z,49.22
2017-08-29T18:12:22.611Z,49.08
2017-08-29T18:14:50.004Z,48.91
2017-08-29T18:17:17.406Z,48.97
2017-08-29T18:19:44.803Z,48.87
2017-08-29T18:22:12.214Z,48.77
2017-08-29T18:24:39.621Z,49.01
2017-08-29T18:27:07.038Z,49.30
2017-08-29T18:29:34.434Z,49.62
2017-08-29T18:32:01.852Z,50.09
2017-08-29T18:34:29.255Z,50.26
2017-08-29T18:36:56.647Z,50.37
2017-08-29T18:39:24.035Z,50.35
2017-08-29T18:41:51.506Z,50.45
2017-08-29T18:44:18.911Z,50.34
2017-08-29T18:46:46.315Z,50.41
2017-08-29T18:49:13.722Z,50.80
2017-08-29T18:51:41.340Z,51.15
2017-08-29T18:54:08.892Z,51.35
2017-08-29T18:56:36.315Z,52.31
2017-08-29T18:59:03.698Z,52.32
2017-08-29T19:01:31.111Z,52.33
2017-08-29T19:03:58.508Z,51.89
2017-08-29T19:06:25.911Z,51.86
2017-08-29T19:08:53.311Z,52.04
2017-08-29T19:11:20.721Z,52.46
2017-08-29T19:13:48.168Z,52.91
2017-08-29T19:16:15.582Z,52.64
2017-08-29T19:18:43.053Z,53.37
2017-08-29T19:21:10.507Z,53.50
2017-08-29T19:23:37.898Z,53.75
2017-08-29T19:26:05.312Z,54.59
2017-08-29T19:28:32.711Z,54.27
2017-08-29T19:31:00.172Z,54.10
2017-08-29T19:33:27.574Z,54.58
2017-08-29T19:35:55.199Z,55.46
2017-08-29T19:38:22.599Z,54.82
2017-08-29T19:40:49.994Z,54.83
2017-08-29T19:43:17.434Z,54.74
2017-08-29T19:45:44.835Z,54.11
2017-08-29T19:48:12.227Z,54.07
2017-08-29T19:50:39.627Z,54.76
2017-08-29T19:53:07.247Z,54.28
2017-08-29T19:55:34.644Z,54.52
2017-08-29T19:58:02.047Z,55.04
2017-08-29T20:00:29.447Z,55.15
2017-08-29T20:02:56.842Z,55.54
2017-08-29T20:05:24.249Z,55.74
2017-08-29T20:07:51.647Z,55.88
2017-08-29T20:10:19.043Z,56.03
2017-08-29T20:12:46.447Z,55.70
2017-08-29T20:15:13.848Z,56.02
2017-08-29T20:17:41.266Z,56.33
2017-08-29T20:20:08.871Z,55.97
2017-08-29T20:22:36.271Z,55.85
2017-08-29T20:25:03.668Z,55.81
2017-08-29T20:27:31.076Z,55.83
2017-08-29T20:29:58.483Z,56.14
2017-08-29T20:32:25.874Z,56.28
2017-08-29T20:34:53.280Z,56.31
2017-08-29T20:37:20.678Z,56.09
2017-08-29T20:39:48.112Z,57.21
2017-08-29T20:42:15.487Z,56.91
2017-08-29T20:44:42.891Z,56.70
2017-08-29T20:47:10.775Z,56.65
2017-08-29T20:49:38.193Z,56.65
2017-08-29T20:52:05.623Z,56.70
2017-08-29T20:54:33.030Z,56.78
2017-08-29T20:57:00.443Z,56.80
2017-08-29T20:59:27.842Z,56.67
2017-08-29T21:01:55.250Z,57.13
2017-08-29T21:04:22.655Z,56.90
2017-08-29T21:06:50.071Z,57.32
2017-08-29T21:09:17.487Z,57.19
2017-08-29T21:11:45.106Z,57.28
2017-08-29T21:14:12.524Z,57.21
2017-08-29T21:16:39.918Z,57.28
2017-08-29T21:19:07.321Z,57.04
2017-08-29T21:21:34.718Z,57.15
2017-08-29T21:24:02.119Z,57.48
2017-08-29T21:26:29.528Z,58.07
2017-08-29T21:28:56.932Z,58.64
2017-08-29T21:31:24.339Z,58.84
2017-08-29T21:33:51.744Z,59.19
2017-08-29T21:36:19.154Z,59.21
2017-08-29T21:38:46.552Z,59.60
2017-08-29T21:41:13.955Z,60.09
2017-08-29T21:43:41.564Z,60.99
2017-08-29T21:46:08.970Z,61.43
2017-08-29T21:48:36.385Z,61.14
2017-08-29T21:51:04.002Z,61.67
2017-08-29T21:53:31.399Z,61.38
2017-08-29T21:55:58.807Z,61.51
2017-08-29T21:58:26.202Z,60.78
2017-08-29T22:00:53.639Z,60.99
2017-08-29T22:03:21.030Z,60.31
2017-08-29T22:05:48.453Z,60.82
2017-08-29T22:08:15.851Z,60.65
2017-08-29T22:10:43.263Z,60.51
2017-08-29T22:13:10.651Z,60.72
2017-08-29T22:15:38.051Z,60.45
2017-08-29T22:18:05.456Z,60.98
2017-08-29T22:20:32.874Z,62.06
2017-08-29T22:23:00.267Z,62.37
2017-08-29T22:25:27.654Z,61.48
2017-08-29T22:27:55.068Z,61.97
2017-08-29T22:30:22.468Z,61.61
2017-08-29T22:32:49.881Z,61.66
2017-08-29T22:35:17.270Z,62.13
2017-08-29T22:37:44.662Z,61.33
2017-08-29T22:40:12.058Z,61.57
2017-08-29T22:42:39.460Z,61.37
2017-08-29T22:45:06.850Z,61.18
2017-08-29T22:47:34.260Z,61.49
2017-08-29T22:50:01.659Z,61.79
2017-08-29T22:52:29.059Z,61.45
2017-08-29T22:54:56.448Z,61.47
2017-08-29T22:57:23.864Z,61.38
2017-08-29T22:59:51.258Z,61.67
2017-08-29T23:02:18.663Z,61.27
2017-08-29T23:04:46.063Z,61.29
2017-08-29T23:07:13.464Z,61.55
2017-08-29T23:09:40.867Z,61.56
2017-08-29T23:12:08.264Z,60.91
2017-08-29T23:14:35.672Z,61.67
2017-08-29T23:17:03.067Z,62.38
2017-08-29T23:19:30.457Z,62.66
2017-08-29T23:21:57.846Z,62.39
2017-08-29T23:24:25.256Z,62.66
2017-08-29T23:26:52.651Z,62.86
2017-08-29T23:29:20.059Z,63.02
2017-08-29T23:31:47.489Z,63.05
2017-08-29T23:34:14.882Z,63.62
2017-08-29T23:36:42.274Z,64.23
2017-08-29T23:39:09.886Z,65.28
2017-08-29T23:41:37.279Z,66.20
2017-08-29T23:44:04.695Z,66.81
2017-08-29T23:46:32.115Z,67.80
2017-08-29T23:48:59.711Z,68.27
2017-08-29T23:51:27.335Z,68.44
2017-08-29T23:53:54.727Z,68.32
2017-08-29T23:56:22.131Z,68.10
2017-08-29T23:58:49.531Z,68.07
